createdAt,value
2022-10-18T00:01:03.000Z,14.1
2022-10-18T00:04:35.000Z,13.1
2022-10-18T00:08:08.000Z,10.2
2022-10-18T00:11:41.000Z,11.9
2022-10-18T00:14:32.000Z,17.7
2022-10-18T00:18:05.000Z,11.1
2022-10-18T00:25:10.000Z,14.8
2022-10-18T00:28:43.000Z,13.8
2022-10-18T00:32:15.000Z,14.5
2022-10-18T00:35:48.000Z,15.6
2022-10-18T00:39:20.000Z,12.9
2022-10-18T00:42:53.000Z,11.8
2022-10-18T00:46:26.000Z,15.4
2022-10-18T00:49:58.000Z,12.4
2022-10-18T00:52:49.000Z,13.3
2022-10-18T00:56:22.000Z,21.1
2022-10-18T00:59:55.000Z,19.1
2022-10-18T01:03:27.000Z,14.7
2022-10-18T01:07:00.000Z,15.9
2022-10-18T01:10:33.000Z,14.4
2022-10-18T01:14:05.000Z,16.8
2022-10-18T01:17:38.000Z,16.8
2022-10-18T01:21:11.000Z,19.4
2022-10-18T01:24:43.000Z,18.2
2022-10-18T01:28:16.000Z,17.4
2022-10-18T01:31:07.000Z,16.8
2022-10-18T01:34:40.000Z,13.1
2022-10-18T01:38:12.000Z,13.4
2022-10-18T01:41:45.000Z,14.9
2022-10-18T01:45:17.000Z,16.8
2022-10-18T01:48:50.000Z,14
2022-10-18T01:52:23.000Z,13.1
2022-10-18T01:55:56.000Z,14.2
2022-10-18T01:59:28.000Z,11.7
2022-10-18T02:03:01.000Z,12.8
2022-10-18T02:06:34.000Z,13.3
2022-10-18T02:09:25.000Z,16.2
2022-10-18T02:12:57.000Z,12.3
2022-10-18T02:16:30.000Z,11
2022-10-18T02:20:03.000Z,11.5
2022-10-18T02:23:35.000Z,11.8
2022-10-18T02:27:08.000Z,13.6
2022-10-18T02:30:40.000Z,12.4
2022-10-18T02:34:13.000Z,10.6
2022-10-18T02:37:46.000Z,10.7
2022-10-18T02:41:19.000Z,9.9
2022-10-18T02:44:51.000Z,7.9
2022-10-18T02:47:42.000Z,12.8
2022-10-18T02:51:15.000Z,8.6
2022-10-18T02:54:48.000Z,8.5
2022-10-18T02:58:20.000Z,9.4
2022-10-18T03:01:53.000Z,9.7
2022-10-18T03:05:25.000Z,6.6
2022-10-18T03:08:58.000Z,6.1
2022-10-18T03:12:31.000Z,7
2022-10-18T03:16:03.000Z,5.9
2022-10-18T03:19:36.000Z,8.1
2022-10-18T03:23:08.000Z,6.2
2022-10-18T03:25:59.000Z,7.1
2022-10-18T03:29:33.000Z,6.3
2022-10-18T03:33:05.000Z,5.1
2022-10-18T03:36:38.000Z,6.3
2022-10-18T03:40:11.000Z,5.8
2022-10-18T03:43:43.000Z,5.1
2022-10-18T03:47:16.000Z,5.3
2022-10-18T03:50:48.000Z,6.9
2022-10-18T03:54:21.000Z,7.3
2022-10-18T03:57:54.000Z,7.9
2022-10-18T04:01:26.000Z,7.6
2022-10-18T04:04:18.000Z,4.7
2022-10-18T04:07:50.000Z,4
2022-10-18T04:11:23.000Z,7.4
2022-10-18T04:14:56.000Z,3.5
2022-10-18T04:18:28.000Z,2.4
2022-10-18T04:22:01.000Z,3.4
2022-10-18T04:25:37.000Z,2
2022-10-18T04:29:10.000Z,3.3
2022-10-18T04:32:43.000Z,3.9
2022-10-18T04:36:15.000Z,3.8
2022-10-18T04:39:48.000Z,4.9
2022-10-18T04:42:39.000Z,3.5
2022-10-18T04:46:12.000Z,2.4
2022-10-18T04:49:44.000Z,2.7
2022-10-18T04:53:17.000Z,9.1
2022-10-18T04:56:50.000Z,4.3
2022-10-18T05:00:22.000Z,2.4
2022-10-18T05:03:55.000Z,2.6
2022-10-18T05:07:59.000Z,2.4
2022-10-18T05:11:31.000Z,4
2022-10-18T05:15:04.000Z,3
2022-10-18T05:18:37.000Z,4.4
2022-10-18T05:21:28.000Z,1.7
2022-10-18T05:25:01.000Z,2.6
2022-10-18T05:28:33.000Z,1.3
2022-10-18T05:32:06.000Z,1.6
2022-10-18T05:35:39.000Z,2.2
2022-10-18T05:39:12.000Z,1.7
2022-10-18T05:42:44.000Z,1.5
2022-10-18T05:46:17.000Z,1.6
2022-10-18T05:49:49.000Z,2.5
2022-10-18T05:53:22.000Z,1.4
2022-10-18T05:57:02.000Z,1.9
2022-10-18T05:59:54.000Z,1.5
2022-10-18T06:03:26.000Z,1.6
2022-10-18T06:06:59.000Z,2.1
2022-10-18T06:10:32.000Z,2.8
2022-10-18T06:14:04.000Z,2.5
2022-10-18T06:17:37.000Z,3.5
2022-10-18T06:21:09.000Z,2.5
2022-10-18T06:24:42.000Z,1.7
2022-10-18T06:28:21.000Z,1.9
2022-10-18T06:31:54.000Z,2.8
2022-10-18T06:35:26.000Z,1.1
2022-10-18T06:38:18.000Z,1.8
2022-10-18T06:41:51.000Z,1.9
2022-10-18T06:45:23.000Z,2.2
2022-10-18T06:48:56.000Z,1.9
2022-10-18T06:52:28.000Z,3.2
2022-10-18T06:56:16.000Z,2.6
2022-10-18T06:59:49.000Z,2.1
2022-10-18T07:03:22.000Z,2.9
2022-10-18T07:06:54.000Z,2
2022-10-18T07:10:27.000Z,1.8
2022-10-18T07:14:00.000Z,2.8
2022-10-18T07:16:52.000Z,2.9
2022-10-18T07:20:25.000Z,3.5
2022-10-18T07:23:57.000Z,2.2
2022-10-18T07:27:30.000Z,0.9
2022-10-18T07:31:03.000Z,1.4
2022-10-18T07:34:35.000Z,2.2
2022-10-18T07:38:08.000Z,2.7
2022-10-18T07:41:41.000Z,3.6
2022-10-18T07:45:13.000Z,1.5
2022-10-18T07:48:46.000Z,1.8
2022-10-18T07:52:19.000Z,2
2022-10-18T07:55:10.000Z,3
2022-10-18T07:58:43.000Z,1.5
2022-10-18T08:02:15.000Z,1.3
2022-10-18T08:05:48.000Z,2.9
2022-10-18T08:09:20.000Z,1.8
2022-10-18T08:12:53.000Z,2.6
2022-10-18T08:16:25.000Z,1.5
2022-10-18T08:19:59.000Z,3
2022-10-18T08:23:44.000Z,1.5
2022-10-18T08:27:16.000Z,2.1
2022-10-18T08:31:02.000Z,2
2022-10-18T08:33:53.000Z,2.7
2022-10-18T08:37:26.000Z,3.5
2022-10-18T08:40:59.000Z,3.3
2022-10-18T08:44:33.000Z,2.9
2022-10-18T08:48:05.000Z,4.5
2022-10-18T08:51:45.000Z,2.2
2022-10-18T08:55:17.000Z,2
2022-10-18T08:58:50.000Z,2.1
2022-10-18T09:02:23.000Z,1.4
2022-10-18T09:05:56.000Z,2
2022-10-18T09:09:29.000Z,0.8
2022-10-18T09:12:20.000Z,0.7
2022-10-18T09:15:53.000Z,2.2
2022-10-18T09:19:25.000Z,2.1
2022-10-18T09:22:58.000Z,1.5
2022-10-18T09:26:30.000Z,0.5
2022-10-18T09:30:03.000Z,1
2022-10-18T09:33:36.000Z,3.9
2022-10-18T09:37:09.000Z,1.1
2022-10-18T09:40:41.000Z,1.5
2022-10-18T09:44:14.000Z,1.2
2022-10-18T09:47:46.000Z,2.1
2022-10-18T09:50:37.000Z,1.1
2022-10-18T09:54:10.000Z,0.3
2022-10-18T09:57:42.000Z,1.3
2022-10-18T10:01:15.000Z,0.4
2022-10-18T10:04:48.000Z,0.2
2022-10-18T10:08:20.000Z,0.3
2022-10-18T10:11:53.000Z,1.5
2022-10-18T10:15:26.000Z,1.5
2022-10-18T10:19:05.000Z,0.3
2022-10-18T10:22:38.000Z,0.5
2022-10-18T10:26:10.000Z,1.6
2022-10-18T10:29:02.000Z,2.2
2022-10-18T10:32:42.000Z,1.4
2022-10-18T10:36:15.000Z,1.9
2022-10-18T10:43:26.000Z,2.7
2022-10-18T10:47:04.000Z,2.4
2022-10-18T10:50:36.000Z,1.4
2022-10-18T10:54:26.000Z,0.8
2022-10-18T10:57:58.000Z,0.6
2022-10-18T11:01:31.000Z,0.6
2022-10-18T11:05:27.000Z,0.6
2022-10-18T11:08:18.000Z,1.1
2022-10-18T11:11:51.000Z,1.8
2022-10-18T11:15:23.000Z,1.1
2022-10-18T11:18:56.000Z,1
2022-10-18T11:22:29.000Z,2
2022-10-18T11:26:01.000Z,1.5
2022-10-18T11:29:34.000Z,1.9
2022-10-18T11:33:06.000Z,1.4
2022-10-18T11:36:39.000Z,2
2022-10-18T11:40:27.000Z,2.9
2022-10-18T11:44:00.000Z,3.6
2022-10-18T11:46:51.000Z,2.6
2022-10-18T11:50:23.000Z,1.6
2022-10-18T11:54:07.000Z,1
2022-10-18T11:57:39.000Z,2.1
2022-10-18T12:01:12.000Z,2.7
2022-10-18T12:04:51.000Z,1.5
2022-10-18T12:08:49.000Z,3.3
2022-10-18T12:12:51.000Z,3
2022-10-18T12:16:24.000Z,2.2
2022-10-18T12:20:15.000Z,4.4
2022-10-18T12:23:48.000Z,2.7
2022-10-18T12:26:39.000Z,3.3
2022-10-18T12:30:12.000Z,4.4
2022-10-18T12:33:44.000Z,3.6
2022-10-18T12:37:17.000Z,3.9
2022-10-18T12:40:50.000Z,4.3
2022-10-18T12:44:22.000Z,4.8
2022-10-18T12:47:55.000Z,4.1
2022-10-18T12:51:27.000Z,4.2
2022-10-18T12:55:00.000Z,4.3
2022-10-18T12:58:33.000Z,4.1
2022-10-18T13:02:05.000Z,3.7
2022-10-18T13:04:56.000Z,3.1
2022-10-18T13:08:35.000Z,3.4
2022-10-18T13:12:07.000Z,3.5
2022-10-18T13:15:40.000Z,3.7
2022-10-18T13:19:12.000Z,4.1
2022-10-18T13:22:45.000Z,5.1
2022-10-18T13:26:18.000Z,3.3
2022-10-18T13:29:50.000Z,3.1
2022-10-18T13:33:23.000Z,3.5
2022-10-18T13:36:55.000Z,3.1
2022-10-18T13:40:28.000Z,3.3
2022-10-18T13:43:19.000Z,2.4
2022-10-18T13:46:52.000Z,2.7
2022-10-18T13:50:25.000Z,1.9
2022-10-18T13:53:57.000Z,2
2022-10-18T13:57:31.000Z,2
2022-10-18T14:01:13.000Z,1.8
2022-10-18T14:04:55.000Z,2
2022-10-18T14:08:49.000Z,2.1
2022-10-18T14:12:41.000Z,3.3
2022-10-18T14:16:14.000Z,2.3
2022-10-18T14:19:47.000Z,3.7
2022-10-18T14:22:38.000Z,2.8
2022-10-18T14:26:11.000Z,2.4
2022-10-18T14:29:43.000Z,2.7
2022-10-18T14:33:16.000Z,2.6
2022-10-18T14:36:48.000Z,2.4
2022-10-18T14:40:21.000Z,3.2
2022-10-18T14:43:54.000Z,3.4
2022-10-18T14:47:26.000Z,3.7
2022-10-18T14:50:59.000Z,2.5
2022-10-18T14:54:34.000Z,3.6
2022-10-18T14:58:07.000Z,3.8
2022-10-18T15:00:58.000Z,3.5
2022-10-18T15:04:31.000Z,3.1
2022-10-18T15:08:04.000Z,4.1
2022-10-18T15:11:37.000Z,2.9
2022-10-18T15:15:10.000Z,2.8
2022-10-18T15:18:43.000Z,4.4
2022-10-18T15:22:15.000Z,4.9
2022-10-18T15:25:57.000Z,3.3
2022-10-18T15:29:31.000Z,3.2
2022-10-18T15:33:03.000Z,3.3
2022-10-18T15:39:27.000Z,3.4
2022-10-18T15:43:00.000Z,2.6
2022-10-18T15:46:33.000Z,7
2022-10-18T15:50:05.000Z,6.5
2022-10-18T15:53:38.000Z,3.1
2022-10-18T15:57:10.000Z,4
2022-10-18T16:00:43.000Z,6.5
2022-10-18T16:04:16.000Z,9.9
2022-10-18T16:07:48.000Z,6
2022-10-18T16:11:21.000Z,10.1
2022-10-18T16:14:54.000Z,11.6
2022-10-18T16:17:45.000Z,4.9
2022-10-18T16:21:17.000Z,9.9
2022-10-18T16:24:50.000Z,6.5
2022-10-18T16:28:23.000Z,8.6
2022-10-18T16:31:55.000Z,9.2
2022-10-18T16:35:28.000Z,7.5
2022-10-18T16:39:00.000Z,6.2
2022-10-18T16:42:37.000Z,5.7
2022-10-18T16:46:10.000Z,8.3
2022-10-18T16:49:42.000Z,7.3
2022-10-18T16:53:15.000Z,4.8
2022-10-18T16:56:06.000Z,7
2022-10-18T16:59:39.000Z,6.6
2022-10-18T17:03:12.000Z,5.7
2022-10-18T17:06:44.000Z,6.9
2022-10-18T17:10:17.000Z,4.6
2022-10-18T17:13:50.000Z,5.7
2022-10-18T17:17:22.000Z,4
2022-10-18T17:20:55.000Z,7.8
2022-10-18T17:24:28.000Z,7.5
2022-10-18T17:28:26.000Z,9
2022-10-18T17:31:59.000Z,7.1
2022-10-18T17:34:50.000Z,6.7
2022-10-18T17:38:23.000Z,5.6
2022-10-18T17:41:55.000Z,15.3
2022-10-18T17:45:28.000Z,15.7
2022-10-18T17:49:01.000Z,10
2022-10-18T17:56:07.000Z,6.8
2022-10-18T17:59:39.000Z,9.9
2022-10-18T18:03:12.000Z,8.3
2022-10-18T18:06:45.000Z,8.1
2022-10-18T18:10:17.000Z,14.4
2022-10-18T18:13:08.000Z,7.7
2022-10-18T18:16:45.000Z,9.6
2022-10-18T18:20:17.000Z,6
2022-10-18T18:23:50.000Z,9.7
2022-10-18T18:27:22.000Z,12.2
2022-10-18T18:30:55.000Z,10.6
2022-10-18T18:34:28.000Z,6.4
2022-10-18T18:38:01.000Z,13.7
2022-10-18T18:41:33.000Z,9.1
2022-10-18T18:45:22.000Z,11.6
2022-10-18T18:48:54.000Z,15.6
2022-10-18T18:51:46.000Z,10.9
2022-10-18T18:55:18.000Z,12.1
2022-10-18T18:58:51.000Z,14.2
2022-10-18T19:02:23.000Z,12.3
2022-10-18T19:05:56.000Z,17.9
2022-10-18T19:09:29.000Z,10.8
2022-10-18T19:13:07.000Z,12.8
2022-10-18T19:16:40.000Z,9.7
2022-10-18T19:20:13.000Z,11.1
2022-10-18T19:23:45.000Z,12.7
2022-10-18T19:27:23.000Z,9.6
2022-10-18T19:30:14.000Z,13
2022-10-18T19:33:47.000Z,12.2
2022-10-18T19:37:25.000Z,11
2022-10-18T19:40:58.000Z,10.1
2022-10-18T19:44:30.000Z,20.8
2022-10-18T19:48:03.000Z,11.1
2022-10-18T19:51:38.000Z,13.5
2022-10-18T19:55:11.000Z,11.7
2022-10-18T19:58:43.000Z,12.5
2022-10-18T20:02:18.000Z,12
2022-10-18T20:05:51.000Z,11.8
2022-10-18T20:08:42.000Z,11.6
2022-10-18T20:12:14.000Z,19.1
2022-10-18T20:15:47.000Z,11.5
2022-10-18T20:19:20.000Z,15
2022-10-18T20:22:52.000Z,11.5
2022-10-18T20:26:25.000Z,15.5
2022-10-18T20:29:57.000Z,15
2022-10-18T20:33:36.000Z,11.9
2022-10-18T20:37:09.000Z,13.7
2022-10-18T20:40:41.000Z,18.7
2022-10-18T20:44:14.000Z,26.2
2022-10-18T20:47:05.000Z,27.7
2022-10-18T20:50:38.000Z,25.2
2022-10-18T20:54:11.000Z,19.9
2022-10-18T20:57:43.000Z,20.2
2022-10-18T21:01:16.000Z,26.1
2022-10-18T21:04:49.000Z,14.9
2022-10-18T21:08:21.000Z,15.9
2022-10-18T21:11:54.000Z,20.7
2022-10-18T21:15:27.000Z,25.3
2022-10-18T21:18:59.000Z,17.2
2022-10-18T21:22:32.000Z,26.4
2022-10-18T21:25:23.000Z,25.3
2022-10-18T21:28:56.000Z,22.1
2022-10-18T21:32:29.000Z,25
2022-10-18T21:36:01.000Z,21.6
2022-10-18T21:39:34.000Z,19.9
2022-10-18T21:43:07.000Z,24.8
2022-10-18T21:46:39.000Z,24.9
2022-10-18T21:50:12.000Z,26.9
2022-10-18T21:53:45.000Z,26.8
2022-10-18T21:57:17.000Z,21.3
2022-10-18T22:00:50.000Z,27.8
2022-10-18T22:03:41.000Z,28.2
2022-10-18T22:07:14.000Z,26.3
2022-10-18T22:10:46.000Z,30.9
2022-10-18T22:14:19.000Z,27
2022-10-18T22:17:52.000Z,26.7
2022-10-18T22:21:24.000Z,28.7
2022-10-18T22:24:57.000Z,27.5
2022-10-18T22:28:29.000Z,26
2022-10-18T22:32:02.000Z,24.1
2022-10-18T22:35:35.000Z,29.7
2022-10-18T22:39:07.000Z,29.3
2022-10-18T22:41:59.000Z,22.2
2022-10-18T22:45:31.000Z,25.6
2022-10-18T22:49:04.000Z,27.2
2022-10-18T22:52:37.000Z,27.1
2022-10-18T22:56:09.000Z,25.1
2022-10-18T22:59:42.000Z,24.8
2022-10-18T23:03:15.000Z,28.8
2022-10-18T23:06:47.000Z,35.7
2022-10-18T23:10:20.000Z,27.3
2022-10-18T23:13:52.000Z,27.1
2022-10-18T23:17:25.000Z,32.2
2022-10-18T23:20:17.000Z,33.5
2022-10-18T23:23:49.000Z,27.6
2022-10-18T23:27:22.000Z,24.4
2022-10-18T23:30:55.000Z,30.1
2022-10-18T23:34:27.000Z,25.6
2022-10-18T23:38:00.000Z,26.4
2022-10-18T23:41:33.000Z,30.6
2022-10-18T23:45:05.000Z,31
2022-10-18T23:48:38.000Z,23.9
2022-10-18T23:52:10.000Z,24.2
2022-10-18T23:55:43.000Z,24.9
2022-10-18T23:58:34.000Z,26.3
